createdAt,value
2023-04-27T16:37:50.149Z,4.70
2023-04-27T16:40:18.304Z,4.30
2023-04-27T16:42:46.987Z,4.85
2023-04-27T16:45:14.717Z,5.15
2023-04-27T16:47:42.617Z,4.78
2023-04-27T16:50:11.013Z,4.80
2023-04-27T16:52:38.730Z,4.90
2023-04-27T16:55:06.804Z,5.10
2023-04-27T16:57:34.358Z,5.10
2023-04-27T17:00:02.051Z,5.05
2023-04-27T17:02:29.747Z,5.50
2023-04-27T17:04:59.549Z,5.80
2023-04-27T17:07:28.723Z,7.60
2023-04-27T17:09:56.569Z,9.00
2023-04-27T17:12:24.158Z,8.65
2023-04-27T17:14:51.740Z,8.77
2023-04-27T17:17:19.419Z,9.98
2023-04-27T17:19:46.965Z,8.50
2023-04-27T17:22:15.045Z,8.68
2023-04-27T17:24:42.619Z,7.82
2023-04-27T17:27:10.400Z,8.90
2023-04-27T17:29:38.005Z,9.25
2023-04-27T17:32:05.730Z,9.38
2023-04-27T17:34:33.435Z,8.85
2023-04-27T17:39:55.803Z,9.10
2023-04-27T17:42:23.456Z,9.75
2023-04-27T17:44:51.332Z,9.95
2023-04-27T17:47:20.546Z,12.35
2023-04-27T17:49:48.107Z,10.02
2023-04-27T17:52:15.959Z,9.37
2023-04-27T17:54:43.662Z,9.48
2023-04-27T17:57:11.205Z,9.32
2023-04-27T17:59:38.885Z,9.50
2023-04-27T18:02:06.523Z,9.23
2023-04-27T18:04:34.348Z,10.00
2023-04-27T18:07:02.060Z,9.23
2023-04-27T18:09:30.840Z,9.55
2023-04-27T18:12:00.787Z,9.68
2023-04-27T18:14:28.377Z,9.48
2023-04-27T18:16:56.143Z,8.00
2023-04-27T18:19:24.123Z,8.18
2023-04-27T18:21:51.913Z,8.10
2023-04-27T18:24:19.566Z,8.68
2023-04-27T18:26:47.145Z,8.57
2023-04-27T18:29:15.110Z,8.03
2023-04-27T18:31:46.358Z,7.53
2023-04-27T18:34:14.492Z,7.75
2023-04-27T18:36:41.996Z,8.18
2023-04-27T18:39:09.685Z,8.85
2023-04-27T18:41:37.233Z,7.57
2023-04-27T18:44:05.910Z,7.35
2023-04-27T18:46:34.249Z,7.43
2023-04-27T18:49:02.445Z,7.97
2023-04-27T18:51:30.026Z,7.70
2023-04-27T18:53:58.033Z,7.70
2023-04-27T18:56:25.975Z,10.30
2023-04-27T18:58:53.750Z,9.93
2023-04-27T19:01:26.858Z,8.82
2023-04-27T19:03:55.083Z,8.95
2023-04-27T19:06:22.808Z,9.17
2023-04-27T19:08:50.645Z,9.68
2023-04-27T19:11:22.291Z,10.23
2023-04-27T19:13:50.324Z,9.95
2023-04-27T19:16:26.036Z,9.82
2023-04-27T19:18:57.256Z,9.30
2023-04-27T19:21:25.214Z,10.43
2023-04-27T19:23:53.202Z,9.63
2023-04-27T19:26:21.432Z,10.43
2023-04-27T19:28:49.048Z,9.68
2023-04-27T19:31:17.337Z,9.57
2023-04-27T19:33:47.372Z,9.75
2023-04-27T19:36:23.178Z,8.95
2023-04-27T19:38:50.850Z,8.82
2023-04-27T19:41:18.664Z,9.45
2023-04-27T19:43:46.306Z,8.83
2023-04-27T19:46:14.083Z,9.38
2023-04-27T19:48:42.520Z,9.82
2023-04-27T19:51:10.734Z,9.48
2023-04-27T19:53:39.009Z,9.40
2023-04-27T19:56:07.501Z,9.50
2023-04-27T19:58:36.044Z,9.50
2023-04-27T20:01:04.178Z,9.10
2023-04-27T20:03:32.128Z,9.23
2023-04-27T20:06:00.381Z,8.98
2023-04-27T20:08:28.108Z,9.93
2023-04-27T20:10:55.785Z,9.43
2023-04-27T20:13:23.363Z,9.55
2023-04-27T20:15:51.607Z,8.80
2023-04-27T20:18:19.492Z,8.88
2023-04-27T20:20:47.425Z,9.47
2023-04-27T20:23:15.019Z,9.85
2023-04-27T20:25:42.636Z,9.88
2023-04-27T20:28:10.238Z,9.60
2023-04-27T20:30:37.991Z,10.13
2023-04-27T20:33:05.660Z,9.60
2023-04-27T20:35:33.896Z,9.60
2023-04-27T20:38:02.013Z,9.50
2023-04-27T20:40:29.617Z,9.18
2023-04-27T20:42:57.398Z,10.07
2023-04-27T20:45:25.557Z,9.53
2023-04-27T20:47:53.445Z,9.73
2023-04-27T20:50:21.275Z,9.60
2023-04-27T20:52:48.976Z,9.80
2023-04-27T20:55:16.717Z,9.73
2023-04-27T20:57:44.315Z,9.83
2023-04-27T21:00:13.320Z,10.57
2023-04-27T21:02:41.069Z,11.00
2023-04-27T21:05:08.830Z,11.13
2023-04-27T21:07:36.421Z,10.70
2023-04-27T21:10:06.901Z,11.63
2023-04-27T21:12:34.510Z,10.98
2023-04-27T21:15:02.110Z,11.68
2023-04-27T21:17:29.914Z,11.30
2023-04-27T21:19:58.295Z,11.25
2023-04-27T21:22:26.139Z,11.13
2023-04-27T21:24:53.682Z,11.93
2023-04-27T21:27:21.330Z,11.20
2023-04-27T21:29:49.178Z,11.25
2023-04-27T21:32:16.962Z,11.60
2023-04-27T21:34:44.481Z,10.93
2023-04-27T21:37:12.104Z,12.20
2023-04-27T21:39:39.659Z,11.43
2023-04-27T21:42:07.294Z,11.30
2023-04-27T21:44:34.940Z,11.75
2023-04-27T21:47:02.658Z,11.40
2023-04-27T21:49:30.391Z,11.35
2023-04-27T21:51:58.312Z,11.55
2023-04-27T21:54:25.997Z,10.77
2023-04-27T21:56:53.718Z,9.88
2023-04-27T21:59:21.755Z,10.23
2023-04-27T22:01:49.408Z,9.93
2023-04-27T22:04:17.461Z,9.75
2023-04-27T22:06:45.838Z,10.73
2023-04-27T22:09:14.147Z,10.25
2023-04-27T22:11:41.776Z,9.80
2023-04-27T22:14:09.366Z,9.80
2023-04-27T22:16:37.027Z,10.52
2023-04-27T22:19:05.102Z,11.05
2023-04-27T22:21:33.375Z,11.18
2023-04-27T22:24:00.917Z,11.40
2023-04-27T22:26:28.512Z,12.13
2023-04-27T22:28:56.119Z,12.45
2023-04-27T22:31:24.001Z,12.35
2023-04-27T22:33:51.859Z,13.32
2023-04-27T22:36:19.523Z,12.80
2023-04-27T22:38:47.302Z,12.45
2023-04-27T22:41:14.960Z,12.77
2023-04-27T22:43:42.658Z,12.32
2023-04-27T22:46:10.249Z,13.05
2023-04-27T22:48:37.790Z,11.90
2023-04-27T22:51:09.535Z,12.60
2023-04-27T22:53:37.660Z,11.93
2023-04-27T22:56:06.151Z,11.55
2023-04-27T22:58:33.808Z,12.77
2023-04-27T23:01:01.734Z,11.83
2023-04-27T23:03:29.505Z,12.38
2023-04-27T23:05:57.203Z,12.90
2023-04-27T23:08:25.358Z,12.05
2023-04-27T23:10:56.960Z,13.02
2023-04-27T23:13:27.622Z,12.80
2023-04-27T23:15:55.333Z,12.98
2023-04-27T23:18:22.997Z,11.82
2023-04-27T23:20:57.302Z,11.77
2023-04-27T23:23:24.884Z,12.43
2023-04-27T23:25:52.399Z,11.33
2023-04-27T23:28:20.848Z,11.77
2023-04-27T23:30:55.145Z,12.05
2023-04-27T23:33:22.865Z,11.55
2023-04-27T23:35:50.486Z,11.98
2023-04-27T23:38:18.044Z,11.70
2023-04-27T23:40:45.613Z,11.95
2023-04-27T23:43:13.222Z,12.98
2023-04-27T23:45:40.960Z,12.35
2023-04-27T23:48:08.536Z,13.13
2023-04-27T23:50:36.104Z,13.60
2023-04-27T23:53:03.788Z,14.75
2023-04-27T23:55:34.602Z,14.68
2023-04-27T23:58:02.602Z,14.15
